Aeroporto :
LOGIN :

Iscrizione | Disclaimer

   EN    FR    IT 

 










Sommario :    VFR   VFR Marginale   IFR   IFR Intensivo   IFR Molto Intensivo
Visibilità : 
Base nubi : 
>= 8 km
>= 3000ft
5 / 8 km
1000 / 3000 ft
1500m / 5 km
500 / 1000 ft
800 / 1500m
200 / 500 ft
< 800m
< 200 ft
Simboli :   Temporali  Nebbia  Neve Forte  Precipitazioni Forti  Vento > 20 kt
SIGMETs :   Varie  Temporali  Ghiacco  Turbolenza  Onda orograficha  Ceneri Vulcaniche







- Altitudine del aeroporto : 313 ft
- Codice IATA : LEH
- Carte del aeroporto


LFOH - Le Havre Octeville

ULTIMO METAR :
  • 161400Z AUTO 23007KT 190V250 CAVOK 18/13 Q1017 NOSIG

METARs OBSOLETI :
  • 161330Z AUTO 23007KT CAVOK 18/13 Q1017 NOSIG
  • 161300Z AUTO 24008KT 200V260 CAVOK 17/14 Q1017 NOSIG
  • 161230Z AUTO 20008KT 160V230 CAVOK 18/13 Q1017 NOSIG
  • 161200Z AUTO 20007KT 170V230 CAVOK 17/13 Q1017 NOSIG
  • 161130Z AUTO 22009KT CAVOK 16/13 Q1017 NOSIG

TAF TAF LFOH
Valido dal 16 a 12 ore il 17 a 12 ore UTC


161100Z 1612/1712 23010KT 9999 SCT020
BECMG 1614/1616 31006KT
TEMPO 1619/1712 4000 BR BKN008
PROB30 1703/1710 0500 FG BKN001
ATIS : +33 2 35 54 64 93
Nessun NOTAM noto per questo aeroporto.



MetMap, La meteo Aeronautica in un colpo d'occhio ! - Copyright ORBIFLY Dicembre 2007 - Disclaimer

ORBIFLY MET'MAP TEAM :

Programmazione e sviluppo : Alexandra Zaïnal
Concezione e sviluppo : Baudouin d'Aumeries
Co-Programmazione e sviluppo : Marc-Olivier Méhu
Supporto tecnico e logistico : Manuel Goepfert
Aiuto per la traduzione : Arnaldo La Scala

Contatto : metmap@orbifly.com




FONTI E CREDITI :

   NOAA